createdAt,value
2022-11-01T00:03:18.764Z,86.63
2022-11-01T00:08:40.580Z,64.22
2022-11-01T00:14:02.819Z,74.35
2022-11-01T00:19:24.622Z,80.60
2022-11-01T00:24:46.458Z,134.20
2022-11-01T00:30:08.685Z,60.22
2022-11-01T00:35:34.884Z,90.25
2022-11-01T00:40:56.886Z,101.65
2022-11-01T00:46:19.052Z,88.90
2022-11-01T00:51:40.842Z,85.28
2022-11-01T00:57:02.668Z,73.03
2022-11-01T01:02:24.710Z,95.45
2022-11-01T01:07:46.648Z,64.90
2022-11-01T01:13:08.519Z,94.53
2022-11-01T01:18:30.314Z,68.88
2022-11-01T01:23:52.169Z,65.70
2022-11-01T01:29:15.654Z,68.78
2022-11-01T01:34:37.497Z,64.60
2022-11-01T01:39:59.575Z,54.35
2022-11-01T01:45:32.236Z,63.15
2022-11-01T01:50:58.208Z,56.97
2022-11-01T01:56:25.132Z,52.73
2022-11-01T02:01:47.005Z,45.63
2022-11-01T02:07:09.383Z,29.88
2022-11-01T02:12:36.404Z,39.28
2022-11-01T02:18:36.955Z,36.47
2022-11-01T02:24:37.560Z,39.95
2022-11-01T02:30:08.383Z,31.33
2022-11-01T02:36:05.772Z,34.83
2022-11-01T02:41:40.986Z,53.85
2022-11-01T02:47:03.950Z,65.70
2022-11-01T02:52:28.910Z,76.53
2022-11-01T02:57:50.827Z,105.05
2022-11-01T03:03:23.806Z,97.80
2022-11-01T03:08:56.471Z,117.82
2022-11-01T03:14:25.010Z,149.50
2022-11-01T03:20:07.595Z,90.93
2022-11-01T03:25:44.000Z,56.72
2022-11-01T03:31:09.273Z,64.22
2022-11-01T03:36:36.077Z,140.93
2022-11-01T03:42:03.418Z,100.25
2022-11-01T03:47:25.774Z,114.25
2022-11-01T03:52:47.916Z,74.30
2022-11-01T03:58:09.943Z,98.10
2022-11-01T04:03:31.739Z,100.00
2022-11-01T04:08:53.571Z,70.90
2022-11-01T04:14:15.377Z,84.95
2022-11-01T04:19:37.200Z,110.43
2022-11-01T04:24:59.016Z,70.95
2022-11-01T04:30:20.931Z,139.02
2022-11-01T04:35:42.776Z,171.35
2022-11-01T04:41:04.654Z,132.85
2022-11-01T04:46:30.071Z,239.77
2022-11-01T04:51:51.884Z,145.77
2022-11-01T04:57:13.747Z,94.57
2022-11-01T05:02:35.561Z,50.92
2022-11-01T05:08:05.991Z,116.78
2022-11-01T05:13:27.784Z,125.63
2022-11-01T05:18:49.600Z,71.95
2022-11-01T05:24:11.403Z,160.70
2022-11-01T05:29:33.599Z,73.10
2022-11-01T05:34:55.555Z,194.25
2022-11-01T05:40:17.430Z,97.70
2022-11-01T05:45:39.217Z,88.80
2022-11-01T05:51:01.017Z,106.97
2022-11-01T05:56:22.809Z,106.90
2022-11-01T06:01:44.733Z,271.77
2022-11-01T06:07:06.662Z,158.98
2022-11-01T06:12:28.462Z,231.38
2022-11-01T06:17:57.511Z,281.35
2022-11-01T06:23:19.368Z,126.22
2022-11-01T06:28:41.159Z,148.85
2022-11-01T06:34:04.531Z,261.10
2022-11-01T06:39:26.830Z,234.98
2022-11-01T06:44:48.697Z,107.93
2022-11-01T06:50:10.509Z,89.18
2022-11-01T06:55:32.331Z,107.03
2022-11-01T07:00:54.475Z,198.48
2022-11-01T07:06:16.459Z,87.13
2022-11-01T07:11:38.280Z,53.20
2022-11-01T07:17:00.121Z,55.85
2022-11-01T07:22:21.907Z,107.82
2022-11-01T07:27:43.731Z,38.97
2022-11-01T07:33:05.997Z,71.00
2022-11-01T07:38:28.264Z,48.97
2022-11-01T07:43:50.079Z,28.02
2022-11-01T07:49:11.868Z,33.25
2022-11-01T07:54:33.658Z,32.50
2022-11-01T07:59:55.634Z,86.78
2022-11-01T08:05:17.789Z,48.65
2022-11-01T08:10:40.181Z,43.35
2022-11-01T08:16:02.162Z,40.35
2022-11-01T08:21:23.975Z,21.27
2022-11-01T08:26:45.872Z,20.02
2022-11-01T08:32:07.707Z,29.70
2022-11-01T08:37:29.541Z,28.92
2022-11-01T08:42:51.855Z,38.25
2022-11-01T08:48:14.009Z,31.55
2022-11-01T08:53:35.840Z,34.25
2022-11-01T08:58:57.768Z,29.90
2022-11-01T09:04:19.757Z,24.40
2022-11-01T09:09:41.612Z,52.17
2022-11-01T09:15:05.127Z,33.15
2022-11-01T09:20:26.943Z,28.05
2022-11-01T09:25:48.934Z,43.22
2022-11-01T09:31:20.504Z,39.25
2022-11-01T09:36:42.513Z,32.45
2022-11-01T09:42:10.478Z,60.33
2022-11-01T09:47:33.822Z,34.83
2022-11-01T09:52:57.149Z,41.60
2022-11-01T09:58:40.807Z,34.97
2022-11-01T10:04:10.070Z,45.92
2022-11-01T10:09:51.952Z,26.45
2022-11-01T10:15:19.253Z,37.83
2022-11-01T10:20:41.890Z,38.95
2022-11-01T10:26:06.140Z,40.70
2022-11-01T10:31:29.798Z,28.23
2022-11-01T10:36:55.899Z,27.65
2022-11-01T10:42:17.712Z,31.05
2022-11-01T10:47:39.525Z,31.92
2022-11-01T10:53:08.336Z,43.50
2022-11-01T10:59:15.008Z,31.13
2022-11-01T11:04:36.976Z,37.20
2022-11-01T11:15:49.255Z,39.15
2022-11-01T11:21:12.719Z,66.15
2022-11-01T11:26:39.184Z,33.33
2022-11-01T11:37:26.103Z,45.22
2022-11-01T11:42:48.964Z,48.80
2022-11-01T11:48:23.102Z,37.60
2022-11-01T11:54:04.322Z,50.95
2022-11-01T11:59:29.223Z,45.03
2022-11-01T12:04:54.121Z,45.30
2022-11-01T12:10:45.882Z,97.00
2022-11-01T12:22:01.804Z,86.75
2022-11-01T12:27:25.199Z,177.10
2022-11-01T12:32:53.058Z,69.55
2022-11-01T12:38:53.104Z,61.72
2022-11-01T12:44:26.950Z,70.40
2022-11-01T12:49:54.918Z,57.33
2022-11-01T12:55:37.802Z,68.72
2022-11-01T13:01:14.609Z,50.47
2022-11-01T13:06:55.245Z,50.58
2022-11-01T13:12:22.982Z,109.07
2022-11-01T13:17:49.158Z,63.15
2022-11-01T13:23:20.044Z,52.65
2022-11-01T13:29:03.217Z,64.82
2022-11-01T13:34:41.777Z,122.60
2022-11-01T13:40:30.300Z,113.65
2022-11-01T13:46:13.116Z,115.38
2022-11-01T13:51:39.185Z,87.50
2022-11-01T13:57:06.864Z,56.03
2022-11-01T14:02:32.961Z,86.43
2022-11-01T14:08:04.307Z,62.47
2022-11-01T14:13:44.556Z,58.15
2022-11-01T14:19:17.522Z,96.70
2022-11-01T14:25:02.777Z,66.33
2022-11-01T14:30:30.183Z,99.28
2022-11-01T14:35:56.329Z,65.35
2022-11-01T14:41:19.979Z,62.38
2022-11-01T14:46:46.756Z,63.92
2022-11-01T14:52:15.952Z,49.60
2022-11-01T14:57:37.795Z,46.30
2022-11-01T15:03:01.222Z,40.85
2022-11-01T15:08:30.663Z,43.22
2022-11-01T15:13:54.742Z,37.17
2022-11-01T15:19:21.263Z,36.88
2022-11-01T15:24:47.064Z,35.72
2022-11-01T15:30:20.921Z,37.53
2022-11-01T15:35:42.907Z,29.10
2022-11-01T15:41:28.055Z,32.45
2022-11-01T15:46:51.463Z,26.00
2022-11-01T15:52:20.051Z,31.90
2022-11-01T15:57:45.751Z,34.10
2022-11-01T16:03:17.090Z,30.38
2022-11-01T16:08:54.911Z,31.80
2022-11-01T16:14:36.306Z,32.33
2022-11-01T16:19:59.833Z,32.28
2022-11-01T16:25:23.713Z,34.75
2022-11-01T16:30:46.865Z,33.03
2022-11-01T16:36:17.886Z,35.25
2022-11-01T16:41:40.988Z,31.35
2022-11-01T16:47:03.324Z,35.55
2022-11-01T16:52:25.115Z,33.88
2022-11-01T16:57:46.960Z,33.10
2022-11-01T17:03:08.806Z,39.03
2022-11-01T17:08:31.762Z,42.75
2022-11-01T17:13:53.588Z,48.05
2022-11-01T17:19:44.633Z,37.38
2022-11-01T17:25:07.151Z,32.08
2022-11-01T17:30:28.951Z,35.47
2022-11-01T17:35:50.996Z,38.08
2022-11-01T17:41:18.131Z,42.95
2022-11-01T17:46:39.934Z,42.22
2022-11-01T17:52:01.762Z,50.35
2022-11-01T17:57:23.593Z,52.88
2022-11-01T18:02:45.377Z,44.60
2022-11-01T18:08:16.760Z,36.00
2022-11-01T18:13:50.162Z,46.47
2022-11-01T18:19:20.900Z,43.28
2022-11-01T18:25:09.078Z,47.70
2022-11-01T18:30:30.897Z,46.00
2022-11-01T18:36:10.987Z,50.83
2022-11-01T18:41:32.826Z,43.65
2022-11-01T18:47:04.688Z,46.90
2022-11-01T18:52:27.370Z,52.15
2022-11-01T18:57:49.173Z,53.65
2022-11-01T19:03:12.867Z,66.05
2022-11-01T19:08:34.714Z,63.25
2022-11-01T19:13:59.541Z,51.83
2022-11-01T19:19:21.563Z,57.20
2022-11-01T19:24:43.371Z,57.05
2022-11-01T19:30:19.667Z,51.08
2022-11-01T19:35:41.960Z,46.45
2022-11-01T19:41:04.773Z,48.20
2022-11-01T19:46:26.624Z,47.55
2022-11-01T19:52:13.724Z,49.20
2022-11-01T19:57:37.616Z,47.28
2022-11-01T20:03:01.976Z,48.97
2022-11-01T20:08:33.292Z,50.42
2022-11-01T20:13:55.144Z,50.75
2022-11-01T20:19:17.871Z,54.17
2022-11-01T20:24:39.997Z,54.67
2022-11-01T20:30:01.849Z,50.75
2022-11-01T20:35:23.670Z,51.15
2022-11-01T20:40:45.480Z,50.42
2022-11-01T20:46:07.438Z,56.80
2022-11-01T20:51:29.270Z,54.72
2022-11-01T20:56:51.203Z,53.22
2022-11-01T21:02:13.136Z,57.78
2022-11-01T21:07:35.075Z,55.75
2022-11-01T21:12:57.569Z,63.28
2022-11-01T21:18:19.332Z,56.90
2022-11-01T21:23:43.819Z,62.22
2022-11-01T21:29:19.290Z,58.92
2022-11-01T21:34:41.098Z,60.38
2022-11-01T21:40:22.464Z,58.25
2022-11-01T21:45:46.350Z,55.58
2022-11-01T21:51:08.186Z,57.60
2022-11-01T21:56:30.184Z,61.10
2022-11-01T22:01:52.102Z,61.97
2022-11-01T22:07:14.050Z,61.25
2022-11-01T22:12:35.849Z,71.88
2022-11-01T22:17:57.708Z,69.75
2022-11-01T22:23:19.492Z,66.88
2022-11-01T22:28:41.284Z,70.80
2022-11-01T22:34:03.246Z,68.40
2022-11-01T22:39:26.048Z,73.00
2022-11-01T22:44:50.128Z,72.57
2022-11-01T22:50:14.218Z,66.50
2022-11-01T22:55:41.438Z,55.88
2022-11-01T23:01:19.484Z,49.15
2022-11-01T23:06:45.493Z,46.60
2022-11-01T23:12:21.875Z,43.30
2022-11-01T23:17:43.866Z,44.38
2022-11-01T23:23:11.100Z,47.67
2022-11-01T23:28:33.298Z,47.60
2022-11-01T23:33:55.505Z,46.97
2022-11-01T23:39:17.737Z,44.80
2022-11-01T23:44:40.357Z,42.58
2022-11-01T23:50:10.386Z,46.13
2022-11-01T23:55:45.484Z,49.25
